Time;durP1;ratioP1;P1;durP2;ratioP2;P2;SDS_P1;SDS_P2;PMS_P1;PMS_P2;Temp;Humidity;BMP_temperature;BMP_pressure;BME280_temperature;BME280_humidity;BME280_pressure;Samples;Min_cycle;Max_cycle;Signal;HPM_P1;HPM_P2
2023/04/03 00:01:33;;;;;;;3.78;2.45;;;6.20;99.90;;;;;;4987217;28;20117;-86
2023/04/03 00:03:59;;;;;;;3.70;2.20;;;9.90;99.90;;;;;;4987626;28;20132;-86
2023/04/03 00:06:26;;;;;;;3.63;2.30;;;8.40;99.90;;;;;;4988413;28;20049;-85
2023/04/03 00:08:52;;;;;;;3.78;2.17;;;6.30;99.90;;;;;;5005524;28;20034;-87
2023/04/03 00:11:18;;;;;;;4.20;2.30;;;7.70;99.90;;;;;;4986801;28;20030;-87
2023/04/03 00:13:44;;;;;;;3.90;2.60;;;6.30;99.90;;;;;;4995102;28;20037;-88
2023/04/03 00:16:11;;;;;;;4.00;2.20;;;6.00;99.90;;;;;;5004169;28;20030;-85
2023/04/03 00:18:38;;;;;;;4.22;2.40;;;6.00;99.90;;;;;;4999542;28;20680;-81
2023/04/03 00:21:04;;;;;;;3.80;2.33;;;;;;;;;;5002557;28;20022;-85
2023/04/03 00:23:30;;;;;;;3.45;2.30;;;;;;;;;;4982402;28;20105;-84
2023/04/03 00:25:56;;;;;;;4.18;2.40;;;;;;;;;;4982271;28;20031;-83
2023/04/03 00:28:22;;;;;;;3.83;2.42;;;;;;;;;;4982805;28;20056;-85
2023/04/03 00:30:49;;;;;;;4.82;2.47;;;6.10;99.90;;;;;;4982301;28;20606;-83
2023/04/03 00:33:15;;;;;;;4.70;2.22;;;8.10;99.90;;;;;;5000068;28;20034;-83
2023/04/03 00:35:41;;;;;;;3.67;2.30;;;;;;;;;;5002973;28;20034;-82
2023/04/03 00:38:08;;;;;;;7.40;2.47;;;6.20;99.90;;;;;;4985614;28;20449;-84
2023/04/03 00:40:41;;;;;;;5.07;2.67;;;6.20;99.90;;;;;;4999952;28;20026;-85
2023/04/03 00:43:19;;;;;;;3.40;2.33;;;6.00;99.90;;;;;;4998331;28;20022;-83
2023/04/03 00:45:48;;;;;;;2.90;2.15;;;6.00;99.90;;;;;;4999259;28;20027;-83
2023/04/03 00:48:19;;;;;;;3.20;2.03;;;6.00;99.90;;;;;;5000330;28;20090;-85
2023/04/03 00:50:46;;;;;;;3.33;2.38;;;6.00;99.90;;;;;;5001572;28;20026;-85
2023/04/03 00:53:17;;;;;;;4.70;2.17;;;6.10;99.90;;;;;;5001949;28;20027;-86
2023/04/03 00:55:44;;;;;;;5.18;2.25;;;;;;;;;;5004921;28;20033;-84
2023/04/03 00:58:11;;;;;;;3.38;2.30;;;6.00;99.90;;;;;;4986532;28;20053;-84
2023/04/03 01:00:46;;;;;;;5.25;3.30;;;6.00;99.90;;;;;;5000216;28;20026;-84
2023/04/03 01:03:12;;;;;;;3.38;2.42;;;;;;;;;;5000603;28;20117;-87
2023/04/03 01:05:38;;;;;;;3.97;2.40;;;;;;;;;;4995110;28;20034;-86
2023/04/03 01:08:05;;;;;;;4.53;2.33;;;;;;;;;;4993824;28;20026;-85
2023/04/03 01:10:31;;;;;;;3.42;2.15;;;;;;;;;;4990515;28;20022;-83
2023/04/03 01:12:57;;;;;;;2.85;2.25;;;;;;;;;;4989875;28;20150;-82
2023/04/03 01:15:26;;;;;;;8.60;2.55;;;5.60;99.90;;;;;;5005533;28;20058;-83
2023/04/03 01:17:57;;;;;;;3.63;2.47;;;5.00;99.90;;;;;;5005519;28;20034;-84
2023/04/03 01:20:28;;;;;;;;;;;5.50;99.90;;;;;;5005011;28;20030;-87
2023/04/03 01:22:55;;;;;;;3.40;2.33;;;;;;;;;;4988242;28;19906;-86
2023/04/03 01:25:22;;;;;;;4.10;2.65;;;;;;;;;;4985629;28;20027;-82
2023/04/03 01:27:48;;;;;;;4.78;2.28;;;;;;;;;;4985888;28;20042;-80
2023/04/03 01:30:17;;;;;;;3.88;2.30;;;5.30;99.90;;;;;;4986100;28;20263;-82
2023/04/03 01:32:43;;;;;;;4.43;2.35;;;;;;;;;;5004180;28;20054;-83
2023/04/03 01:35:10;;;;;;;4.30;2.53;;;5.30;99.90;;;;;;4984963;28;20536;-83
2023/04/03 01:37:36;;;;;;;2.95;2.30;;;5.20;99.90;;;;;;5003271;28;20090;-82
2023/04/03 01:40:02;;;;;;;4.18;2.30;;;;;;;;;;5002091;28;20065;-82
2023/04/03 01:42:29;;;;;;;3.42;2.03;;;;;;;;;;4985816;28;20026;-82
2023/04/03 01:44:55;;;;;;;7.78;3.25;;;;;;;;;;5003388;28;20054;-84
2023/04/03 01:47:22;;;;;;;3.60;2.33;;;5.10;99.90;;;;;;4985148;28;20094;-83
2023/04/03 01:49:48;;;;;;;5.05;2.70;;;;;;;;;;5001306;28;20050;-84
2023/04/03 01:52:14;;;;;;;4.60;2.10;;;5.00;99.90;;;;;;4984862;28;20030;-82
2023/04/03 01:54:40;;;;;;;4.30;2.42;;;;;;;;;;5002429;28;20057;-85
2023/04/03 01:57:06;;;;;;;3.90;2.47;;;;;;;;;;4985183;28;20048;-83
2023/04/03 01:59:32;;;;;;;6.25;2.90;;;;;;;;;;5002927;28;20030;-82
2023/04/03 02:01:58;;;;;;;3.97;2.53;;;;;;;;;;4984569;28;20080;-85
2023/04/03 02:04:24;;;;;;;4.45;2.70;;;;;;;;;;4984390;28;20030;-84
2023/04/03 02:06:50;;;;;;;4.22;2.55;;;;;;;;;;4984753;28;20026;-84
2023/04/03 02:09:16;;;;;;;4.70;2.47;;;;;;;;;;5002254;28;20390;-85
2023/04/03 02:11:42;;;;;;;5.05;2.75;;;4.90;99.90;;;;;;4984583;28;20390;-84
2023/04/03 02:14:08;;;;;;;7.32;2.97;;;;;;;;;;5000257;28;20102;-86
2023/04/03 02:16:34;;;;;;;4.60;2.65;;;;;;;;;;4982721;28;20034;-87
2023/04/03 02:19:00;;;;;;;3.60;2.35;;;;;;;;;;5000884;28;20509;-85
2023/04/03 02:21:26;;;;;;;3.85;2.53;;;;;;;;;;5000814;28;20238;-82
2023/04/03 02:23:51;;;;;;;3.35;2.30;;;4.80;99.90;;;;;;4983973;28;20034;-84
2023/04/03 02:26:18;;;;;;;3.45;2.40;;;;;;;;;;5001386;28;20036;-80
2023/04/03 02:28:44;;;;;;;4.88;2.40;;;;;;;;;;4984634;28;20028;-80
2023/04/03 02:31:10;;;;;;;3.85;2.42;;;;;;;;;;4985050;28;20038;-84
2023/04/03 02:33:36;;;;;;;3.83;2.25;;;;;;;;;;4986236;28;20038;-83
2023/04/03 02:36:04;;;;;;;4.28;3.00;;;4.70;99.90;;;;;;4986536;28;20057;-87
2023/04/03 02:38:30;;;;;;;4.13;2.70;;;;;;;;;;4985162;28;20034;-85
2023/04/03 02:41:08;;;;;;;4.97;2.60;;;4.60;99.90;;;;;;5001441;28;20026;-83
2023/04/03 02:43:34;;;;;;;4.97;2.70;;;;;;;;;;5001952;28;20036;-83
2023/04/03 02:46:00;;;;;;;4.28;2.72;;;;;;;;;;4999464;28;20022;-83
2023/04/03 02:48:26;;;;;;;5.00;2.92;;;;;;;;;;4999832;28;20054;-82
2023/04/03 02:50:52;;;;;;;3.70;2.58;;;;;;;;;;5000418;28;20027;-82
2023/04/03 02:53:19;;;;;;;4.57;2.53;;;;;;;;;;4999665;28;20026;-81
2023/04/03 02:55:45;;;;;;;4.72;2.63;;;;;;;;;;5000539;28;20097;-82
2023/04/03 02:58:11;;;;;;;5.03;2.40;;;;;;;;;;5001497;28;20030;-82
2023/04/03 03:00:37;;;;;;;3.65;2.40;;;4.40;99.90;;;;;;4999943;28;20394;-79
2023/04/03 03:03:13;;;;;;;5.85;2.45;;;;;;;;;;5000299;28;20026;-80
2023/04/03 03:05:39;;;;;;;4.70;2.50;;;;;;;;;;5001200;28;20026;-81
2023/04/03 03:08:05;;;;;;;4.22;2.60;;;;;;;;;;4999945;28;20085;-81
2023/04/03 03:10:31;;;;;;;4.80;2.50;;;;;;;;;;5001912;28;20053;-83
2023/04/03 03:13:00;;;;;;;5.32;2.72;;;;;;;;;;5008869;28;20057;-82
2023/04/03 03:15:26;;;;;;;6.35;2.78;;;;;;;;;;5007567;28;20026;-87
2023/04/03 03:17:52;;;;;;;7.43;2.40;;;;;;;;;;5005683;28;20057;-85
2023/04/03 03:20:18;;;;;;;4.63;2.30;;;4.30;99.90;;;;;;4999993;28;20077;-80
2023/04/03 03:22:44;;;;;;;4.05;2.28;;;;;;;;;;4984168;28;20459;-83
2023/04/03 03:25:10;;;;;;;4.05;2.30;;;;;;;;;;4999453;28;20030;-82
2023/04/03 03:27:36;;;;;;;3.88;2.40;;;;;;;;;;4998808;28;20023;-83
2023/04/03 03:30:02;;;;;;;5.57;2.60;;;;;;;;;;4999325;28;20125;-82
2023/04/03 03:32:28;;;;;;;4.68;2.40;;;;;;;;;;4999247;28;20038;-82
2023/04/03 03:34:54;;;;;;;4.15;2.55;;;;;;;;;;4998846;28;20631;-84
2023/04/03 03:37:20;;;;;;;4.22;2.47;;;;;;;;;;5000208;28;20035;-85
2023/04/03 03:39:46;;;;;;;2.92;2.10;;;;;;;;;;5005077;28;20093;-81
2023/04/03 03:42:12;;;;;;;5.43;2.40;;;;;;;;;;5004202;28;20034;-86
2023/04/03 03:44:39;;;;;;;3.80;2.50;;;;;;;;;;5006687;28;20061;-84
2023/04/03 03:47:05;;;;;;;4.65;2.58;;;;;;;;;;5008605;28;20054;-86
2023/04/03 03:49:32;;;;;;;6.20;2.60;;;;;;;;;;5008055;28;20035;-84
2023/04/03 03:51:58;;;;;;;4.53;2.30;;;;;;;;;;4974777;28;20030;-80
2023/04/03 03:54:24;;;;;;;3.33;2.38;;;;;;;;;;5004485;28;20065;-83
2023/04/03 03:56:50;;;;;;;5.00;2.35;;;;;;;;;;5003361;28;20395;-80
2023/04/03 03:59:19;;;;;;;6.40;2.78;;;;;;;;;;5004996;28;20041;-84
2023/04/03 04:01:45;;;;;;;5.03;2.45;;;;;;;;;;4999061;28;20396;-83
2023/04/03 04:04:11;;;;;;;6.10;2.65;;;;;;;;;;4998007;28;20098;-85
2023/04/03 04:06:36;;;;;;;5.95;2.40;;;4.00;99.90;;;;;;4998374;28;20062;-84
2023/04/03 04:09:02;;;;;;;4.00;2.63;;;;;;;;;;4981754;28;20057;-79
2023/04/03 04:11:29;;;;;;;4.38;2.45;;;;;;;;;;5000315;28;20098;-84
2023/04/03 04:13:55;;;;;;;4.03;2.45;;;;;;;;;;4998777;28;20076;-80
2023/04/03 04:16:21;;;;;;;3.22;2.38;;;;;;;;;;4966039;28;20119;-84
2023/04/03 04:18:49;;;;;;;4.43;2.63;;;3.90;99.90;;;;;;5000203;28;20026;-82
2023/04/03 04:21:15;;;;;;;6.32;2.78;;;;;;;;;;4982167;28;20053;-84
2023/04/03 04:23:41;;;;;;;4.35;2.58;;;;;;;;;;4984022;28;20046;-88
2023/04/03 04:26:07;;;;;;;4.20;2.42;;;3.90;99.90;;;;;;5002389;28;20057;-84
2023/04/03 04:28:33;;;;;;;6.20;3.00;;;;;;;;;;4983992;28;20120;-84
2023/04/03 04:30:59;;;;;;;6.18;3.00;;;;;;;;;;5000147;28;20387;-82
2023/04/03 04:33:25;;;;;;;5.45;2.55;;;;;;;;;;4998933;28;20483;-83
2023/04/03 04:35:51;;;;;;;5.97;2.88;;;;;;;;;;4996846;28;20038;-84
2023/04/03 04:38:17;;;;;;;4.50;2.50;;;;;;;;;;4997837;28;20477;-79
2023/04/03 04:40:43;;;;;;;3.83;2.70;;;;;;;;;;5002496;28;20026;-81
2023/04/03 04:43:14;;;;;;;3.97;2.53;;;;;;;;;;5012667;28;20030;-84
2023/04/03 04:45:46;;;;;;;8.45;2.72;;;3.70;99.90;;;;;;5013421;28;20022;-82
2023/04/03 04:48:21;;;;;;;4.82;2.42;;;;;;;;;;4994929;28;20039;-84
2023/04/03 04:50:47;;;;;;;3.80;2.42;;;;;;;;;;5007496;28;20054;-81
2023/04/03 04:53:14;;;;;;;4.70;2.50;;;3.70;99.90;;;;;;5007912;28;20030;-81
2023/04/03 04:55:40;;;;;;;4.15;2.50;;;3.60;99.90;;;;;;4993169;28;20022;-81
2023/04/03 04:58:06;;;;;;;4.65;2.42;;;;;;;;;;5007981;28;20054;-81
2023/04/03 05:00:32;;;;;;;4.95;2.40;;;;;;;;;;4992011;28;20030;-81
2023/04/03 05:02:59;;;;;;;3.50;2.33;;;;;;;;;;4993936;28;20031;-82
2023/04/03 05:05:25;;;;;;;4.72;2.60;;;;;;;;;;4994715;28;20026;-83
2023/04/03 05:07:51;;;;;;;3.80;2.63;;;;;;;;;;4996912;28;20053;-81
2023/04/03 05:10:16;;;;;;;4.65;2.88;;;3.70;99.90;;;;;;4992092;28;20030;-81
2023/04/03 05:12:42;;;;;;;5.22;2.50;;;;;;;;;;5008382;28;20541;-81
2023/04/03 05:15:08;;;;;;;5.20;2.63;;;3.80;99.90;;;;;;4992662;28;20034;-79
2023/04/03 05:17:35;;;;;;;3.92;2.70;;;;;;;;;;5012204;28;20037;-81
2023/04/03 05:20:05;;;;;;;5.80;2.95;;;3.80;99.90;;;;;;4995896;28;20030;-79
2023/04/03 05:22:31;;;;;;;4.00;2.40;;;5.70;99.90;;;;;;5012257;28;20417;-82
2023/04/03 05:24:57;;;;;;;5.07;2.80;;;;;;;;;;5010404;28;20034;-79
2023/04/03 05:27:24;;;;;;;4.75;2.60;;;;;;;;;;4995309;28;20053;-79
2023/04/03 05:29:50;;;;;;;4.13;2.70;;;;;;;;;;5012969;28;20037;-79
2023/04/03 05:32:17;;;;;;;3.75;2.60;;;;;;;;;;4995800;28;20045;-85
2023/04/03 05:34:43;;;;;;;4.90;2.20;;;;;;;;;;4995837;28;20050;-82
2023/04/03 05:37:15;;;;;;;4.32;2.47;;;3.90;99.90;;;;;;4996486;28;20080;-85
2023/04/03 05:39:41;;;;;;;6.70;2.85;;;;;;;;;;5013406;28;20502;-84
2023/04/03 05:42:07;;;;;;;4.72;2.75;;;;;;;;;;5015111;28;20037;-85
2023/04/03 05:44:33;;;;;;;4.03;2.38;;;;;;;;;;4997287;28;20041;-81
2023/04/03 05:46:59;;;;;;;6.40;2.30;;;3.90;99.90;;;;;;4997229;28;20014;-80
2023/04/03 05:49:25;;;;;;;5.68;2.75;;;;;;;;;;5013089;28;20026;-85
2023/04/03 05:51:51;;;;;;;3.47;2.40;;;;;;;;;;4990953;28;20407;-85
2023/04/03 05:54:23;;;;;;;6.68;2.92;;;3.90;99.90;;;;;;5007912;28;20121;-84
2023/04/03 05:56:50;;;;;;;3.83;2.20;;;4.90;99.90;;;;;;5008479;28;20049;-84
2023/04/03 05:59:16;;;;;;;6.07;2.50;;;7.00;99.90;;;;;;4999904;28;20030;-83
2023/04/03 06:01:45;;;;;;;5.68;2.40;;;;;;;;;;4983389;28;20112;-81
2023/04/03 06:04:12;;;;;;;4.18;2.50;;;;;;;;;;4981609;28;20072;-83
2023/04/03 06:06:51;;;;;;;4.05;2.40;;;4.00;99.90;;;;;;4997933;28;20030;-82
2023/04/03 06:09:19;;;;;;;3.85;2.42;;;4.20;99.90;;;;;;4979639;28;20031;-80
2023/04/03 06:11:45;;;;;;;4.90;2.50;;;5.10;99.90;;;;;;4992561;28;20388;-80
2023/04/03 06:14:20;;;;;;;4.10;2.20;;;4.00;99.90;;;;;;4997853;28;20042;-86
2023/04/03 06:16:46;;;;;;;3.47;2.28;;;4.00;99.90;;;;;;4983204;28;20031;-86
2023/04/03 06:19:12;;;;;;;4.43;2.08;;;4.10;99.90;;;;;;4985870;28;20065;-83
2023/04/03 06:21:38;;;;;;;5.25;2.30;;;4.10;99.90;;;;;;4992937;28;20026;-83
2023/04/03 06:24:04;;;;;;;3.35;2.22;;;6.10;99.90;;;;;;4997495;28;20041;-82
2023/04/03 06:26:30;;;;;;;4.65;2.50;;;4.20;99.90;;;;;;4995654;28;20061;-83
2023/04/03 06:28:56;;;;;;;5.85;2.70;;;6.90;99.90;;;;;;4992666;28;20026;-80
2023/04/03 06:31:22;;;;;;;4.43;2.35;;;4.40;99.90;;;;;;4976674;28;20034;-82
2023/04/03 06:33:48;;;;;;;6.18;2.95;;;4.30;99.90;;;;;;4994296;28;20507;-80
2023/04/03 06:36:13;;;;;;;6.28;2.67;;;5.70;99.90;;;;;;4994937;28;20029;-82
2023/04/03 06:38:39;;;;;;;3.92;2.22;;;4.50;99.90;;;;;;4991271;28;20549;-82
2023/04/03 06:41:05;;;;;;;5.80;2.28;;;5.40;99.90;;;;;;4994248;28;20124;-85
2023/04/03 06:43:32;;;;;;;3.83;2.10;;;7.30;99.90;;;;;;4995411;28;20445;-83
2023/04/03 06:45:57;;;;;;;3.75;2.15;;;6.40;99.90;;;;;;5002195;28;20038;-83
2023/04/03 06:48:23;;;;;;;5.75;2.60;;;7.00;99.90;;;;;;5003175;28;20076;-85
2023/04/03 06:50:49;;;;;;;6.07;1.95;;;7.80;99.90;;;;;;4991196;28;20054;-82
2023/04/03 06:53:14;;;;;;;3.08;2.20;;;5.30;99.90;;;;;;5000160;28;20034;-82
2023/04/03 06:55:41;;;;;;;3.30;2.00;;;5.00;99.90;;;;;;4997684;28;20050;-82
2023/04/03 06:58:10;;;;;;;5.22;1.98;;;7.50;99.90;;;;;;4988188;28;20096;-82
2023/04/03 07:00:36;;;;;;;3.42;1.85;;;6.30;99.90;;;;;;4987757;28;20303;-82
2023/04/03 07:03:02;;;;;;;5.47;2.00;;;7.80;99.90;;;;;;4999218;28;20088;-83
2023/04/03 07:05:28;;;;;;;3.80;1.70;;;5.50;99.90;;;;;;4997445;28;20555;-85
2023/04/03 07:07:53;;;;;;;5.35;1.80;;;5.70;99.90;;;;;;4990269;28;20018;-81
2023/04/03 07:10:19;;;;;;;6.43;1.92;;;7.40;99.90;;;;;;4991305;28;20475;-80
2023/04/03 07:12:46;;;;;;;3.88;2.03;;;;;;;;;;4997548;28;20053;-80
2023/04/03 07:15:12;;;;;;;6.72;2.53;;;5.90;99.90;;;;;;4988041;28;20498;-81
2023/04/03 07:17:38;;;;;;;6.38;2.20;;;7.30;99.90;;;;;;4984686;28;20480;-82
2023/04/03 07:20:04;;;;;;;4.68;2.15;;;6.00;99.90;;;;;;4985573;28;20019;-83
2023/04/03 07:22:31;;;;;;;7.68;2.30;;;6.00;99.90;;;;;;4976684;28;20211;-81
2023/04/03 07:24:56;;;;;;;8.43;3.28;;;7.60;99.90;;;;;;4994328;28;20030;-81
2023/04/03 07:27:22;;;;;;;8.13;3.42;;;6.30;99.90;;;;;;4993287;28;20038;-82
2023/04/03 07:29:49;;;;;;;8.23;2.45;;;;;;;;;;4997835;28;20117;-85
2023/04/03 07:32:24;;;;;;;5.10;2.45;;;6.50;99.90;;;;;;4997639;28;20041;-85
2023/04/03 07:34:54;;;;;;;5.35;2.03;;;6.70;99.90;;;;;;4987312;28;20034;-85
2023/04/03 07:37:20;;;;;;;3.92;1.65;;;6.50;99.90;;;;;;4988154;28;20034;-86
2023/04/03 07:39:49;;;;;;;5.28;1.90;;;6.70;99.90;;;;;;5009536;28;20030;-85
2023/04/03 07:42:20;;;;;;;5.18;2.13;;;6.70;99.90;;;;;;5009375;28;20038;-84
2023/04/03 07:44:47;;;;;;;5.70;2.00;;;;;;;;;;4993260;28;20046;-86
2023/04/03 07:47:16;;;;;;;5.68;2.10;;;6.90;99.90;;;;;;4990492;28;20028;-85
2023/04/03 07:49:42;;;;;;;4.05;1.80;;;;;;;;;;5005919;28;20078;-82
2023/04/03 07:52:08;;;;;;;4.90;1.92;;;7.10;99.90;;;;;;4999598;28;20046;-83
2023/04/03 07:54:34;;;;;;;5.00;1.83;;;7.90;99.90;;;;;;5004870;28;20034;-85
2023/04/03 07:57:01;;;;;;;6.18;2.25;;;7.20;99.90;;;;;;4971953;28;20101;-83
2023/04/03 07:59:26;;;;;;;3.42;1.67;;;7.20;99.90;;;;;;4991265;28;20050;-85
2023/04/03 08:01:52;;;;;;;3.88;1.77;;;7.30;99.90;;;;;;5002967;28;20043;-85
2023/04/03 08:04:18;;;;;;;12.07;3.58;;;;;;;;;;4994784;28;20031;-84
2023/04/03 08:06:44;;;;;;;6.03;2.30;;;7.40;99.90;;;;;;4998683;28;20027;-82
2023/04/03 08:09:10;;;;;;;6.28;2.55;;;7.70;99.90;;;;;;5000876;28;20030;-82
2023/04/03 08:11:36;;;;;;;9.07;2.83;;;;;;;;;;4983650;28;20077;-82
2023/04/03 08:14:04;;;;;;;9.30;2.55;;;7.60;99.90;;;;;;4989027;28;20026;-82
2023/04/03 08:16:30;;;;;;;5.95;2.25;;;9.50;99.90;;;;;;4999135;28;20037;-82
2023/04/03 08:18:55;;;;;;;5.72;2.38;;;7.40;99.90;;;;;;4996126;28;20031;-82
2023/04/03 08:21:21;;;;;;;7.60;2.65;;;9.70;99.90;;;;;;4999885;28;20042;-84
2023/04/03 08:23:50;;;;;;;4.32;2.20;;;8.70;99.90;;;;;;5003173;28;20060;-82
2023/04/03 08:26:18;;;;;;;5.28;2.03;;;7.20;99.90;;;;;;4992227;28;20094;-83
2023/04/03 08:28:44;;;;;;;5.68;2.17;;;9.00;99.90;;;;;;5000060;28;20035;-82
2023/04/03 08:31:15;;;;;;;7.68;2.38;;;7.50;99.90;;;;;;5003684;22;20371;-85
2023/04/03 08:33:43;;;;;;;9.30;2.22;;;7.50;99.90;;;;;;5021852;28;20041;-82
2023/04/03 08:36:19;;;;;;;6.65;2.38;;;7.60;99.90;;;;;;5007862;28;20034;-84
2023/04/03 08:38:45;;;;;;;7.20;2.55;;;7.50;99.90;;;;;;5008760;28;20026;-82
2023/04/03 08:41:22;;;;;;;3.90;1.90;;;8.60;99.90;;;;;;5008652;28;20035;-82
2023/04/03 08:43:57;;;;;;;8.82;3.53;;;7.60;99.90;;;;;;5026684;28;20034;-84
2023/04/03 08:46:48;;;;;;;10.15;3.17;;;7.60;99.90;;;;;;5002106;28;20046;-82
2023/04/03 08:49:25;;;;;;;6.07;2.55;;;7.60;99.90;;;;;;5002478;28;20038;-84
2023/04/03 08:51:51;;;;;;;3.05;1.63;;;7.60;99.90;;;;;;5021231;28;20048;-81
2023/04/03 08:54:32;;;;;;;3.13;1.65;;;9.60;99.90;;;;;;5014405;28;20479;-84
2023/04/03 08:56:59;;;;;;;5.20;1.75;;;7.70;99.90;;;;;;5008187;28;20034;-81
2023/04/03 08:59:29;;;;;;;4.05;1.80;;;9.10;99.90;;;;;;5021681;28;20049;-82
2023/04/03 09:01:57;;;;;;;2.78;1.52;;;8.10;99.90;;;;;;5024697;28;20057;-84
2023/04/03 09:04:24;;;;;;;5.10;2.03;;;7.50;99.90;;;;;;4992634;28;20061;-85
2023/04/03 09:06:55;;;;;;;3.20;1.60;;;7.50;99.90;;;;;;5010733;28;20084;-84
2023/04/03 09:09:35;;;;;;;8.80;2.60;;;8.70;99.90;;;;;;5008069;28;20297;-81
2023/04/03 09:12:39;;;;;;;6.65;2.03;;;7.50;99.90;;;;;;5026139;28;20022;-82
2023/04/03 09:15:14;;;;;;;5.35;1.85;;;7.60;99.90;;;;;;4995860;28;20045;-82
2023/04/03 09:18:16;;;;;;;4.15;1.40;;;7.70;99.90;;;;;;5018987;28;20050;-84
2023/04/03 09:20:42;;;;;;;3.50;1.60;;;;;;;;;;5014370;28;20037;-86
2023/04/03 09:23:14;;;;;;;3.70;1.67;;;7.80;99.90;;;;;;5015520;28;20026;-86
2023/04/03 09:25:40;;;;;;;5.15;2.15;;;7.70;99.90;;;;;;5032281;28;20056;-87
2023/04/03 09:28:09;;;;;;;4.20;1.75;;;7.80;99.90;;;;;;5010467;28;20019;-86
2023/04/03 09:30:37;;;;;;;4.07;1.40;;;7.80;99.90;;;;;;5043261;28;20006;-84
2023/04/03 09:33:03;;;;;;;4.03;1.50;;;7.80;99.90;;;;;;5012037;28;20053;-85
2023/04/03 09:35:36;;;;;;;4.55;1.60;;;7.90;99.90;;;;;;5019339;28;20041;-88
2023/04/03 09:38:11;;;;;;;2.88;1.38;;;8.10;99.90;;;;;;5011814;28;20093;-84
2023/04/03 09:40:39;;;;;;;4.93;2.00;;;8.80;99.90;;;;;;5033661;28;20035;-87
2023/04/03 09:43:21;;;;;;;2.60;1.20;;;8.50;99.90;;;;;;5026842;28;20041;-84
2023/04/03 09:45:48;;;;;;;5.03;1.40;;;10.10;99.90;;;;;;5004569;28;20025;-86
2023/04/03 09:48:18;;;;;;;6.38;1.40;;;10.40;99.80;;;;;;5029031;28;20022;-81
2023/04/03 09:50:50;;;;;;;2.63;1.20;;;9.20;98.20;;;;;;5027151;28;20040;-86
2023/04/03 09:53:42;;;;;;;3.08;1.30;;;11.60;97.50;;;;;;5011773;28;20270;-82
2023/04/03 09:56:16;;;;;;;3.25;1.42;;;8.80;96.50;;;;;;5011915;28;20030;-84
2023/04/03 09:58:45;;;;;;;3.45;1.45;;;8.80;96.90;;;;;;5012817;28;20066;-85
2023/04/03 10:01:26;;;;;;;5.63;1.27;;;8.50;96.70;;;;;;5025854;28;20118;-83
2023/04/03 10:04:14;;;;;;;4.18;1.42;;;8.40;96.30;;;;;;5013507;28;20128;-84
2023/04/03 10:06:46;;;;;;;3.45;1.40;;;8.60;96.20;;;;;;5005649;28;20029;-84
2023/04/03 10:09:25;;;;;;;2.75;1.48;;;10.20;96.40;;;;;;5013425;28;20021;-81
2023/04/03 10:12:04;;;;;;;4.22;1.80;;;9.20;96.10;;;;;;5007589;28;20029;-86
2023/04/03 10:14:32;;;;;;;3.17;1.52;;;9.00;96.00;;;;;;5018592;28;20022;-87
2023/04/03 10:17:25;;;;;;;2.88;1.20;;;9.40;95.80;;;;;;5007329;28;20037;-85
2023/04/03 10:20:09;;;;;;;3.15;1.40;;;9.70;95.40;;;;;;5012349;28;20457;-85
2023/04/03 10:22:47;;;;;;;3.65;1.40;;;9.80;95.30;;;;;;5003246;28;20498;-82
2023/04/03 10:25:32;;;;;;;4.47;1.35;;;10.00;94.30;;;;;;4995130;28;20034;-83
2023/04/03 10:28:05;;;;;;;3.78;1.50;;;10.10;94.30;;;;;;5010274;28;20022;-84
2023/04/03 10:30:49;;;;;;;4.25;1.52;;;10.10;93.70;;;;;;5002168;28;20040;-86
2023/04/03 10:33:56;;;;;;;5.60;1.77;;;10.70;94.20;;;;;;4997790;28;20033;-83
2023/04/03 10:36:58;;;;;;;4.82;1.77;;;9.90;94.10;;;;;;5020253;28;20054;-85
2023/04/03 10:40:01;;;;;;;2.80;1.30;;;9.70;93.40;;;;;;4990957;28;20051;-83
2023/04/03 10:43:09;;;;;;;2.80;1.23;;;9.70;93.50;;;;;;5003195;28;20026;-85
2023/04/03 10:45:49;;;;;;;2.80;1.30;;;9.90;93.30;;;;;;4996598;28;20030;-86
2023/04/03 10:48:49;;;;;;;4.45;1.48;;;9.90;91.50;;;;;;4991946;28;20041;-82
2023/04/03 10:51:21;;;;;;;4.70;1.60;;;9.80;92.10;;;;;;4999746;28;20117;-84
2023/04/03 10:54:04;;;;;;;3.50;1.70;;;9.80;92.00;;;;;;5013184;28;20034;-86
2023/04/03 10:56:40;;;;;;;5.93;2.10;;;9.90;91.90;;;;;;5004425;28;20045;-84
2023/04/03 10:59:32;;;;;;;4.57;1.60;;;9.70;91.90;;;;;;4999164;28;20029;-86
2023/04/03 11:02:16;;;;;;;3.00;1.63;;;9.90;92.30;;;;;;4997680;28;20058;-85
2023/04/03 11:04:44;;;;;;;3.33;1.67;;;10.00;91.80;;;;;;5006016;28;20049;-88
2023/04/03 11:07:12;;;;;;;8.35;2.33;;;10.40;91.40;;;;;;5002016;28;20025;-85
2023/04/03 11:09:43;;;;;;;2.95;1.40;;;10.10;90.20;;;;;;5010373;28;20127;-83
2023/04/03 11:12:31;;;;;;;2.55;1.20;;;10.10;90.20;;;;;;4990798;28;20060;-87
2023/04/03 11:14:57;;;;;;;5.65;2.38;;;10.00;90.20;;;;;;5010159;28;20444;-88
2023/04/03 11:17:46;;;;;;;6.47;2.40;;;9.80;90.30;;;;;;5002655;28;20461;-83
2023/04/03 11:20:20;;;;;;;3.17;1.52;;;9.80;90.50;;;;;;4999748;28;20030;-85
2023/04/03 11:22:54;;;;;;;6.53;2.65;;;9.80;90.80;;;;;;5004779;28;20053;-82
2023/04/03 11:25:24;;;;;;;4.85;2.20;;;10.10;90.70;;;;;;4991118;28;20031;-81
2023/04/03 11:27:58;;;;;;;2.67;1.40;;;10.20;90.80;;;;;;4994431;28;20089;-86
2023/04/03 11:30:44;;;;;;;4.15;1.80;;;10.70;89.80;;;;;;5002503;28;20068;-82
2023/04/03 11:33:31;;;;;;;4.05;1.58;;;10.10;89.50;;;;;;4996909;28;20037;-83
2023/04/03 11:36:09;;;;;;;2.88;1.52;;;9.90;89.50;;;;;;5007771;28;20030;-83
2023/04/03 11:38:43;;;;;;;5.13;1.50;;;10.60;90.00;;;;;;5003338;28;20050;-83
2023/04/03 11:41:11;;;;;;;3.33;1.40;;;9.80;89.60;;;;;;4998647;28;20033;-84
2023/04/03 11:43:59;;;;;;;3.35;1.65;;;9.80;89.60;;;;;;5001140;28;20025;-86
2023/04/03 11:46:55;;;;;;;2.60;1.35;;;10.00;88.60;;;;;;5009772;28;20025;-87
2023/04/03 11:49:55;;;;;;;3.60;1.73;;;10.10;89.10;;;;;;5004276;28;20030;-86
2023/04/03 11:52:39;;;;;;;2.97;1.45;;;10.20;86.60;;;;;;5001627;28;20030;-88
2023/04/03 11:55:20;;;;;;;4.45;1.50;;;10.50;87.20;;;;;;5003595;28;20034;-85
2023/04/03 11:57:58;;;;;;;8.45;1.75;;;10.40;87.40;;;;;;5001274;28;20505;-85
2023/04/03 12:00:55;;;;;;;5.07;1.65;;;10.30;87.40;;;;;;5011222;28;20086;-83
2023/04/03 12:03:26;;;;;;;3.90;1.42;;;10.30;85.80;;;;;;5001181;28;20049;-84
2023/04/03 12:06:07;;;;;;;4.72;1.80;;;10.00;85.10;;;;;;4999396;28;20490;-86
2023/04/03 12:08:33;;;;;;;4.10;1.90;;;10.30;86.10;;;;;;5006862;28;20045;-86
2023/04/03 12:11:13;;;;;;;3.55;1.70;;;10.60;86.50;;;;;;5004112;28;20022;-87
2023/04/03 12:13:40;;;;;;;6.53;1.60;;;10.60;86.90;;;;;;4994480;28;20082;-86
2023/04/03 12:16:19;;;;;;;5.10;1.33;;;10.70;87.20;;;;;;5011711;28;20064;-87
2023/04/03 12:19:00;;;;;;;2.83;1.40;;;10.60;87.30;;;;;;5003895;28;20746;-85
2023/04/03 12:21:46;;;;;;;3.97;1.55;;;10.70;87.60;;;;;;5029275;28;20034;-84
2023/04/03 12:24:33;;;;;;;4.63;1.60;;;10.60;85.20;;;;;;5014126;28;20026;-87
2023/04/03 12:27:23;;;;;;;4.03;1.50;;;10.40;85.90;;;;;;4992647;28;20052;-81
2023/04/03 12:30:03;;;;;;;3.85;1.58;;;10.40;86.50;;;;;;4989898;28;20505;-85
2023/04/03 12:32:39;;;;;;;4.35;1.60;;;10.50;86.10;;;;;;4993955;28;20057;-88
2023/04/03 12:35:27;;;;;;;3.42;1.50;;;10.40;86.40;;;;;;5010670;28;20630;-86
2023/04/03 12:38:34;;;;;;;4.35;1.50;;;10.50;84.30;;;;;;5002271;28;20030;-87
2023/04/03 12:41:11;;;;;;;4.50;1.42;;;10.50;84.90;;;;;;4996218;28;20030;-84
2023/04/03 12:44:01;;;;;;;4.88;1.20;;;10.20;85.40;;;;;;5006467;28;20056;-86
2023/04/03 12:46:44;;;;;;;3.33;1.30;;;10.10;85.10;;;;;;4998144;28;20026;-88
2023/04/03 12:49:26;;;;;;;3.10;1.50;;;10.30;83.60;;;;;;5003772;28;20026;-83
2023/04/03 12:51:53;;;;;;;5.78;2.33;;;9.90;83.30;;;;;;5006119;28;20034;-85
2023/04/03 12:54:31;;;;;;;3.60;1.50;;;10.00;84.70;;;;;;5009187;28;20026;-82
2023/04/03 12:57:18;;;;;;;3.85;1.50;;;10.20;83.70;;;;;;4998097;28;20084;-86
2023/04/03 12:59:45;;;;;;;3.53;1.50;;;10.70;82.20;;;;;;5005600;28;20045;-86
2023/04/03 13:02:29;;;;;;;3.17;1.40;;;10.70;82.60;;;;;;5001001;28;20034;-86
2023/04/03 13:04:59;;;;;;;4.57;1.52;;;12.40;83.20;;;;;;4997621;28;20097;-81
2023/04/03 13:07:37;;;;;;;5.35;1.50;;;12.30;83.10;;;;;;5001120;28;20030;-81
2023/04/03 13:10:08;;;;;;;4.00;1.70;;;10.60;82.00;;;;;;4994572;28;20021;-82
2023/04/03 13:12:53;;;;;;;3.35;1.52;;;10.70;82.50;;;;;;5005603;28;20060;-86
2023/04/03 13:15:29;;;;;;;2.80;1.35;;;11.00;82.80;;;;;;5003883;28;20034;-83
2023/04/03 13:17:56;;;;;;;6.28;1.52;;;11.20;82.20;;;;;;5005248;28;20030;-86
2023/04/03 13:20:29;;;;;;;2.67;1.17;;;11.20;82.40;;;;;;5004706;28;20176;-83
2023/04/03 13:23:08;;;;;;;4.05;1.60;;;11.20;81.60;;;;;;5000355;28;20036;-81
2023/04/03 13:25:37;;;;;;;8.68;2.25;;;11.00;82.40;;;;;;5003957;28;20038;-85
2023/04/03 13:28:06;;;;;;;5.07;1.30;;;11.00;83.00;;;;;;5001686;28;20026;-81
2023/04/03 13:30:37;;;;;;;3.58;1.23;;;10.70;83.00;;;;;;5004279;28;20018;-86
2023/04/03 13:33:18;;;;;;;;;;;10.50;82.50;;;;;;5004765;28;20030;-87
2023/04/03 13:35:43;;;;;;;4.40;1.38;;;10.50;82.40;;;;;;5009628;28;19977;-84
2023/04/03 13:38:18;;;;;;;1.92;1.23;;;10.80;82.20;;;;;;4999429;28;20068;-84
2023/04/03 13:40:53;;;;;;;3.90;1.45;;;10.50;81.50;;;;;;4998205;28;20191;-82
2023/04/03 13:43:26;;;;;;;7.50;1.40;;;10.20;81.30;;;;;;5011160;28;20105;-85
2023/04/03 13:46:04;;;;;;;4.70;1.50;;;10.40;80.90;;;;;;4995393;28;20026;-82
2023/04/03 13:48:52;;;;;;;4.03;1.40;;;10.70;81.40;;;;;;5003799;28;20038;-83